Time;durP1;ratioP1;P1;durP2;ratioP2;P2;SDS_P1;SDS_P2;PMS_P1;PMS_P2;Temp;Humidity;BMP_temperature;BMP_pressure;BME280_temperature;BME280_humidity;BME280_pressure;Samples;Min_cycle;Max_cycle;Signal;HPM_P1;HPM_P2
2023/01/20 00:01:47;;;;;;;;;;;5.90;99.90;;;;;;5074890;28;19946;-67
2023/01/20 00:04:13;;;;;;;;;;;5.90;99.90;;;;;;5091114;28;19961;-65
2023/01/20 00:06:39;;;;;;;;;;;5.80;99.90;;;;;;5093890;28;19969;-65
2023/01/20 00:09:05;;;;;;;;;;;5.80;99.90;;;;;;5096377;28;20012;-66
2023/01/20 00:11:31;;;;;;;;;;;5.80;99.90;;;;;;5094794;28;19916;-66
2023/01/20 00:13:58;;;;;;;;;;;5.70;99.90;;;;;;5073327;28;19977;-66
2023/01/20 00:16:24;;;;;;;;;;;5.70;99.90;;;;;;5084130;28;19912;-65
2023/01/20 00:18:50;;;;;;;;;;;5.70;99.90;;;;;;5079252;28;19947;-65
2023/01/20 00:21:16;;;;;;;;;;;5.70;99.90;;;;;;5066544;28;19912;-66
2023/01/20 00:23:42;;;;;;;;;;;5.70;99.90;;;;;;5095689;28;20267;-65
2023/01/20 00:26:09;;;;;;;;;;;5.60;99.90;;;;;;5081682;28;20286;-65
2023/01/20 00:28:35;;;;;;;;;;;5.60;99.90;;;;;;5091414;28;19965;-65
2023/01/20 00:31:17;;;;;;;;;;;5.60;99.90;;;;;;5110958;28;20534;-66
2023/01/20 00:33:43;;;;;;;;;;;5.60;99.90;;;;;;5094520;28;19920;-66
2023/01/20 00:36:09;;;;;;;;;;;5.60;99.90;;;;;;5080773;28;19923;-65
2023/01/20 00:38:35;;;;;;;;;;;5.60;99.90;;;;;;5089067;28;19919;-66
2023/01/20 00:41:01;;;;;;;;;;;5.60;99.90;;;;;;5072445;28;19913;-66
2023/01/20 00:43:26;;;;;;;;;;;5.60;99.90;;;;;;5071751;28;19916;-66
2023/01/20 00:45:52;;;;;;;;;;;5.60;99.90;;;;;;5070360;28;19916;-66
2023/01/20 00:48:17;;;;;;;;;;;5.60;99.90;;;;;;5073455;28;19924;-66
2023/01/20 00:50:43;;;;;;;;;;;5.60;99.90;;;;;;5071568;28;20490;-67
2023/01/20 00:53:09;;;;;;;;;;;5.50;99.90;;;;;;5062571;28;19919;-66
2023/01/20 00:55:34;;;;;;;;;;;5.50;99.90;;;;;;5072208;28;19973;-65
2023/01/20 00:58:00;;;;;;;;;;;5.40;99.90;;;;;;5072727;28;19912;-64
2023/01/20 01:00:26;;;;;;;;;;;5.50;99.90;;;;;;5074355;28;20267;-66
2023/01/20 01:02:51;;;;;;;;;;;5.40;99.90;;;;;;5071854;28;19917;-65
2023/01/20 01:05:17;;;;;;;;;;;5.40;99.90;;;;;;5060159;28;19921;-67
2023/01/20 01:07:42;;;;;;;;;;;5.50;99.90;;;;;;5075371;28;19948;-66
2023/01/20 01:10:09;;;;;;;;;;;5.40;99.90;;;;;;5070889;28;19912;-65
2023/01/20 01:12:34;;;;;;;;;;;5.40;99.90;;;;;;5079900;28;19923;-65
2023/01/20 01:15:00;;;;;;;;;;;5.40;99.90;;;;;;5071864;28;20004;-65
2023/01/20 01:17:25;;;;;;;;;;;5.40;99.90;;;;;;5071909;28;19928;-65
2023/01/20 01:19:51;;;;;;;;;;;5.30;99.90;;;;;;5077294;28;20441;-65
2023/01/20 01:22:17;;;;;;;;;;;5.40;99.90;;;;;;5090028;28;19984;-66
2023/01/20 01:24:44;;;;;;;;;;;5.40;99.90;;;;;;5062642;28;19920;-65
2023/01/20 01:27:10;;;;;;;;;;;5.40;99.90;;;;;;5072685;28;19916;-65
2023/01/20 01:29:35;;;;;;;;;;;5.30;99.90;;;;;;5061005;28;20130;-65
2023/01/20 01:32:01;;;;;;;;;;;5.30;99.90;;;;;;5072913;28;20298;-65
2023/01/20 01:34:26;;;;;;;;;;;5.30;99.90;;;;;;5057069;28;19971;-66
2023/01/20 01:36:52;;;;;;;;;;;5.40;99.90;;;;;;5094671;28;20547;-66
2023/01/20 01:39:18;;;;;;;;;;;5.40;99.90;;;;;;5080204;28;19915;-66
2023/01/20 01:41:43;;;;;;;;;;;5.50;99.90;;;;;;5074450;28;19912;-65
2023/01/20 01:44:10;;;;;;;;;;;5.50;99.90;;;;;;5087298;28;19912;-66
2023/01/20 01:46:36;;;;;;;;;;;5.40;99.90;;;;;;5081973;28;19916;-66
2023/01/20 01:49:22;;;;;;;;;;;5.50;99.90;;;;;;5079082;28;19916;-65
2023/01/20 01:51:51;;;;;;;;;;;5.50;99.90;;;;;;5084994;28;19908;-66
2023/01/20 01:54:20;;;;;;;;;;;5.40;99.90;;;;;;5064124;28;19919;-65
2023/01/20 01:56:46;;;;;;;;;;;5.40;99.90;;;;;;5088680;28;19912;-65
2023/01/20 01:59:13;;;;;;;;;;;5.40;99.90;;;;;;5086819;28;19956;-65
2023/01/20 02:01:39;;;;;;;;;;;5.40;99.90;;;;;;5088111;28;19912;-65
2023/01/20 02:04:08;;;;;;;;;;;5.50;99.90;;;;;;5081833;28;20356;-65
2023/01/20 02:06:34;;;;;;;;;;;5.40;99.90;;;;;;5091519;28;19959;-65
2023/01/20 02:09:01;;;;;;;;;;;5.50;99.90;;;;;;5096754;28;19920;-65
2023/01/20 02:11:28;;;;;;;;;;;5.40;99.90;;;;;;5064470;28;19958;-65
2023/01/20 02:13:53;;;;;;;;;;;5.50;99.90;;;;;;5072857;28;19920;-65
2023/01/20 02:16:19;;;;;;;;;;;5.50;99.90;;;;;;5077951;28;20351;-65
2023/01/20 02:18:54;;;;;;;;;;;5.50;99.90;;;;;;5076045;28;19917;-66
2023/01/20 02:21:20;;;;;;;;;;;5.50;99.90;;;;;;5077318;28;19916;-66
2023/01/20 02:23:45;;;;;;;;;;;5.40;99.90;;;;;;5077866;28;19958;-65
2023/01/20 02:26:20;;;;;;;;;;;5.30;99.90;;;;;;5077033;28;19927;-65
2023/01/20 02:29:01;;;;;;;;;;;5.40;99.90;;;;;;5078051;28;19980;-65
2023/01/20 02:31:45;;;;;;;;;;;5.30;99.90;;;;;;5094524;28;19951;-64
2023/01/20 02:34:16;;;;;;;;;;;5.40;99.90;;;;;;5077227;28;19919;-64
2023/01/20 02:36:42;;;;;;;;;;;5.40;99.90;;;;;;5065347;28;19997;-64
2023/01/20 02:39:13;;;;;;;;;;;5.40;99.90;;;;;;5060814;28;19924;-66
2023/01/20 02:41:47;;;;;;;;;;;5.40;99.90;;;;;;5075719;28;20363;-65
2023/01/20 02:44:19;;;;;;;;;;;5.30;99.90;;;;;;5060888;28;20069;-64
2023/01/20 02:46:54;;;;;;;;;;;5.30;99.90;;;;;;5058358;28;19923;-65
2023/01/20 02:49:22;;;;;;;;;;;5.30;99.90;;;;;;5074468;28;20445;-66
2023/01/20 02:51:47;;;;;;;;;;;5.20;99.90;;;;;;5077641;28;20229;-64
2023/01/20 02:54:14;;;;;;;;;;;5.20;99.90;;;;;;5082057;28;20037;-65
2023/01/20 02:56:40;;;;;;;;;;;5.20;99.90;;;;;;5095235;28;19920;-65
2023/01/20 02:59:10;;;;;;;;;;;5.20;99.90;;;;;;5072702;28;19912;-65
2023/01/20 03:01:46;;;;;;;;;;;5.20;99.90;;;;;;5076648;28;19999;-65
2023/01/20 03:04:13;;;;;;;;;;;5.20;99.90;;;;;;5075776;28;21197;-65
2023/01/20 03:06:41;;;;;;;;;;;5.10;99.90;;;;;;5076902;28;19923;-65
2023/01/20 03:09:09;;;;;;;;;;;5.10;99.90;;;;;;5058178;28;19931;-64
2023/01/20 03:11:36;;;;;;;;;;;5.20;99.90;;;;;;5081385;28;20052;-65
2023/01/20 03:14:08;;;;;;;;;;;5.10;99.90;;;;;;5081521;28;19916;-65
2023/01/20 03:16:33;;;;;;;;;;;5.10;99.90;;;;;;5072993;28;19916;-64
2023/01/20 03:18:59;;;;;;;;;;;5.20;99.90;;;;;;5060672;28;20668;-64
2023/01/20 03:21:25;;;;;;;;;;;5.10;99.90;;;;;;5074652;28;19916;-65
2023/01/20 03:23:52;;;;;;;;;;;5.10;99.90;;;;;;5076574;28;20417;-66
2023/01/20 03:26:18;;;;;;;;;;;5.10;99.90;;;;;;5075857;28;19953;-64
2023/01/20 03:28:45;;;;;;;;;;;5.20;99.90;;;;;;5075271;28;19923;-65
2023/01/20 03:31:21;;;;;;;;;;;5.10;99.90;;;;;;5078998;28;21864;-66
2023/01/20 03:33:48;;;;;;;;;;;5.10;99.90;;;;;;5069827;28;19966;-65
2023/01/20 03:36:14;;;;;;;;;;;5.10;99.90;;;;;;5092459;28;19912;-66
2023/01/20 03:38:39;;;;;;;;;;;5.10;99.90;;;;;;5098201;28;19919;-65
2023/01/20 03:41:25;;;;;;;;;;;5.10;99.90;;;;;;5095401;28;19919;-65
2023/01/20 03:44:09;;;;;;;;;;;5.10;99.90;;;;;;5088572;28;20007;-65
2023/01/20 03:46:54;;;;;;;;;;;5.00;99.90;;;;;;5095144;28;19927;-68
2023/01/20 03:49:28;;;;;;;;;;;5.10;99.90;;;;;;5073211;28;20007;-65
2023/01/20 03:52:03;;;;;;;;;;;5.00;99.90;;;;;;5082164;28;20293;-64
2023/01/20 03:54:50;;;;;;;;;;;5.00;99.90;;;;;;5095132;28;19912;-65
2023/01/20 03:57:18;;;;;;;;;;;5.00;99.90;;;;;;5090000;28;20388;-65
2023/01/20 03:59:46;;;;;;;;;;;5.00;99.90;;;;;;5074550;28;19999;-66
2023/01/20 04:02:11;;;;;;;;;;;5.00;99.90;;;;;;5086638;28;19909;-65
2023/01/20 04:04:38;;;;;;;;;;;5.10;99.90;;;;;;5066690;28;20278;-65
2023/01/20 04:07:05;;;;;;;;;;;5.00;99.90;;;;;;5098575;28;19923;-65
2023/01/20 04:09:34;;;;;;;;;;;5.10;99.90;;;;;;5060626;28;19973;-65
2023/01/20 04:11:59;;;;;;;;;;;5.10;99.90;;;;;;5076674;28;19920;-65
2023/01/20 04:14:25;;;;;;;;;;;5.10;99.90;;;;;;5071691;28;19921;-64
2023/01/20 04:16:51;;;;;;;;;;;5.10;99.90;;;;;;5077522;28;20003;-65
2023/01/20 04:19:17;;;;;;;;;;;5.10;99.90;;;;;;5077252;28;20691;-65
2023/01/20 04:21:46;;;;;;;;;;;5.10;99.90;;;;;;5072557;28;19912;-65
2023/01/20 04:24:26;;;;;;;;;;;5.10;99.90;;;;;;5080433;28;20370;-65
2023/01/20 04:26:52;;;;;;;;;;;5.10;99.90;;;;;;5097524;28;19912;-65
2023/01/20 04:29:17;;;;;;;;;;;5.10;99.90;;;;;;5090867;28;20381;-65
2023/01/20 04:31:43;;;;;;;;;;;5.10;99.90;;;;;;5069337;28;19923;-64
2023/01/20 04:34:11;;;;;;;;;;;5.10;99.90;;;;;;5069089;28;19912;-65
2023/01/20 04:36:37;;;;;;;;;;;5.10;99.90;;;;;;5065248;28;20015;-65
2023/01/20 04:39:02;;;;;;;;;;;5.10;99.90;;;;;;5072161;28;20305;-66
2023/01/20 04:41:28;;;;;;;;;;;5.00;99.90;;;;;;5074153;28;19916;-66
2023/01/20 04:43:53;;;;;;;;;;;5.00;99.90;;;;;;5073214;28;20747;-65
2023/01/20 04:46:19;;;;;;;;;;;5.00;99.90;;;;;;5072722;28;20037;-65
2023/01/20 04:48:45;;;;;;;;;;;5.00;99.90;;;;;;5071086;28;19925;-65
2023/01/20 04:51:10;;;;;;;;;;;5.00;99.90;;;;;;5074102;28;19958;-65
2023/01/20 04:53:36;;;;;;;;;;;5.00;99.90;;;;;;5073905;28;19920;-65
2023/01/20 04:56:02;;;;;;;;;;;5.00;99.90;;;;;;5073556;28;19920;-65
2023/01/20 04:58:27;;;;;;;;;;;5.00;99.90;;;;;;5073700;28;19912;-65
2023/01/20 05:00:53;;;;;;;;;;;4.90;99.90;;;;;;5061548;28;19913;-66
2023/01/20 05:03:19;;;;;;;;;;;4.90;99.90;;;;;;5074439;28;20007;-66
2023/01/20 05:05:50;;;;;;;;;;;4.90;99.90;;;;;;5072765;28;19978;-67
2023/01/20 05:08:35;;;;;;;;;;;4.90;99.90;;;;;;5022437;28;20168;-67
2023/01/20 05:11:00;;;;;;;;;;;4.90;99.90;;;;;;5073923;28;20308;-65
2023/01/20 05:13:26;;;;;;;;;;;5.00;99.90;;;;;;5074497;28;20060;-65
2023/01/20 05:15:52;;;;;;;;;;;4.90;99.90;;;;;;5072382;28;20418;-65
2023/01/20 05:18:17;;;;;;;;;;;4.90;99.90;;;;;;5073780;28;19924;-65
2023/01/20 05:20:44;;;;;;;;;;;4.90;99.90;;;;;;5074327;28;19925;-65
2023/01/20 05:23:09;;;;;;;;;;;4.90;99.90;;;;;;5074648;28;20041;-65
2023/01/20 05:25:35;;;;;;;;;;;4.90;99.90;;;;;;5071477;28;20536;-65
2023/01/20 05:28:00;;;;;;;;;;;4.80;99.90;;;;;;5071558;28;19912;-66
2023/01/20 05:30:26;;;;;;;;;;;4.80;99.90;;;;;;5070466;28;19912;-66
2023/01/20 05:32:52;;;;;;;;;;;4.80;99.90;;;;;;5070638;28;19927;-66
2023/01/20 05:35:17;;;;;;;;;;;4.70;99.90;;;;;;5077912;28;20003;-65
2023/01/20 05:37:43;;;;;;;;;;;4.70;99.90;;;;;;5103975;28;20048;-64
2023/01/20 05:40:09;;;;;;;;;;;4.70;99.90;;;;;;5094188;28;19912;-66
2023/01/20 05:42:34;;;;;;;;;;;4.70;99.90;;;;;;5109272;28;19908;-65
2023/01/20 05:45:00;;;;;;;;;;;4.70;99.90;;;;;;5092940;28;20499;-66
2023/01/20 05:47:25;;;;;;;;;;;4.70;99.90;;;;;;5094181;28;19991;-64
2023/01/20 05:49:51;;;;;;;;;;;4.60;99.90;;;;;;5079878;28;20370;-66
2023/01/20 05:52:17;;;;;;;;;;;4.60;99.90;;;;;;5078386;28;20373;-67
2023/01/20 05:54:42;;;;;;;;;;;4.60;99.90;;;;;;5079776;28;20277;-65
2023/01/20 05:57:08;;;;;;;;;;;4.60;99.90;;;;;;5075227;28;19950;-67
2023/01/20 05:59:33;;;;;;;;;;;4.50;99.90;;;;;;5095002;28;19954;-65
2023/01/20 06:01:59;;;;;;;;;;;4.50;99.90;;;;;;5111456;28;19991;-65
2023/01/20 06:04:25;;;;;;;;;;;4.50;99.90;;;;;;5099733;28;19915;-65
2023/01/20 06:06:50;;;;;;;;;;;4.50;99.90;;;;;;5094072;28;19917;-67
2023/01/20 06:09:16;;;;;;;;;;;4.50;99.90;;;;;;5102999;28;19916;-66
2023/01/20 06:11:41;;;;;;;;;;;4.40;99.90;;;;;;5086074;28;19999;-68
2023/01/20 06:14:07;;;;;;;;;;;4.40;99.90;;;;;;5097504;28;20290;-67
2023/01/20 06:16:33;;;;;;;;;;;4.40;99.90;;;;;;5090080;28;20533;-66
2023/01/20 06:18:59;;;;;;;;;;;4.40;99.90;;;;;;5074968;28;21764;-65
2023/01/20 06:21:24;;;;;;;;;;;4.30;99.90;;;;;;5086296;28;20018;-65
2023/01/20 06:23:50;;;;;;;;;;;4.30;99.90;;;;;;5076143;28;20370;-67
2023/01/20 06:26:15;;;;;;;;;;;4.20;99.90;;;;;;5090526;28;20348;-69
2023/01/20 06:28:41;;;;;;;;;;;4.30;99.90;;;;;;5087457;28;20299;-66
2023/01/20 06:31:14;;;;;;;;;;;4.20;99.90;;;;;;5070159;28;19912;-65
2023/01/20 06:33:49;;;;;;;;;;;4.20;99.90;;;;;;5096783;28;19912;-65
2023/01/20 06:36:16;;;;;;;;;;;4.30;99.90;;;;;;5082619;28;20397;-66
2023/01/20 06:38:47;;;;;;;;;;;4.20;99.90;;;;;;5088214;28;20330;-65
2023/01/20 06:41:13;;;;;;;;;;;4.20;99.90;;;;;;5094975;28;19912;-65
2023/01/20 06:43:41;;;;;;;;;;;4.20;99.90;;;;;;5093329;28;19919;-66
2023/01/20 06:46:09;;;;;;;;;;;4.20;99.90;;;;;;5089875;28;19919;-66
2023/01/20 06:48:35;;;;;;;;;;;4.20;99.90;;;;;;5083721;28;20113;-66
2023/01/20 06:51:01;;;;;;;;;;;4.20;99.90;;;;;;5094356;28;19923;-65
2023/01/20 06:53:27;;;;;;;;;;;4.20;99.90;;;;;;5073730;28;20345;-66
2023/01/20 06:55:54;;;;;;;;;;;4.20;99.90;;;;;;5081115;28;19919;-66
2023/01/20 06:58:20;;;;;;;;;;;4.20;99.90;;;;;;5085328;28;19908;-67
2023/01/20 07:00:46;;;;;;;;;;;4.30;99.90;;;;;;5058393;28;19911;-66
2023/01/20 07:03:11;;;;;;;;;;;4.30;99.90;;;;;;5094782;28;19923;-65
2023/01/20 07:05:37;;;;;;;;;;;4.30;99.90;;;;;;5106620;28;19912;-65
2023/01/20 07:08:03;;;;;;;;;;;4.30;99.90;;;;;;5079913;28;19919;-65
2023/01/20 07:10:28;;;;;;;;;;;4.30;99.90;;;;;;5075291;28;19952;-65
2023/01/20 07:12:54;;;;;;;;;;;4.30;99.90;;;;;;5085732;28;20370;-65
2023/01/20 07:15:19;;;;;;;;;;;4.30;99.90;;;;;;5074130;28;19919;-65
2023/01/20 07:17:45;;;;;;;;;;;4.30;99.90;;;;;;5072245;28;19923;-66
2023/01/20 07:20:11;;;;;;;;;;;4.30;99.90;;;;;;5101486;28;20296;-65
2023/01/20 07:22:36;;;;;;;;;;;4.20;99.90;;;;;;5105947;28;19908;-66
2023/01/20 07:25:02;;;;;;;;;;;4.20;99.90;;;;;;5098097;28;20277;-66
2023/01/20 07:27:27;;;;;;;;;;;4.30;99.90;;;;;;5070734;28;19970;-66
2023/01/20 07:29:53;;;;;;;;;;;4.30;99.90;;;;;;5082382;28;20061;-66
2023/01/20 07:32:19;;;;;;;;;;;4.30;99.90;;;;;;5084133;28;19931;-66
2023/01/20 07:34:44;;;;;;;;;;;4.30;99.90;;;;;;5084441;28;20046;-66
2023/01/20 07:37:10;;;;;;;;;;;4.40;99.90;;;;;;5099323;28;19912;-66
2023/01/20 07:39:35;;;;;;;;;;;4.40;99.90;;;;;;5065346;28;19909;-65
2023/01/20 07:42:01;;;;;;;;;;;4.40;99.90;;;;;;5077299;28;19919;-67
2023/01/20 07:44:27;;;;;;;;;;;4.40;99.90;;;;;;5106368;28;19912;-65
2023/01/20 07:46:53;;;;;;;;;;;4.40;99.90;;;;;;5105246;28;20334;-65
2023/01/20 07:49:18;;;;;;;;;;;4.40;99.90;;;;;;5078807;28;20343;-67
2023/01/20 07:51:44;;;;;;;;;;;4.40;99.90;;;;;;5086916;28;19919;-64
2023/01/20 07:54:13;;;;;;;;;;;4.30;99.90;;;;;;5083803;28;20331;-66
2023/01/20 07:56:39;;;;;;;;;;;4.30;99.90;;;;;;5097790;28;20444;-65
2023/01/20 07:59:04;;;;;;;;;;;4.30;99.90;;;;;;5109816;28;20285;-67
2023/01/20 08:01:31;;;;;;;;;;;4.40;99.90;;;;;;5097266;28;19920;-66
2023/01/20 08:03:59;;;;;;;;;;;4.30;99.90;;;;;;5091611;28;19935;-65
2023/01/20 08:06:25;;;;;;;;;;;4.30;99.90;;;;;;5112015;28;19931;-64
2023/01/20 08:08:51;;;;;;;;;;;4.40;99.90;;;;;;5098611;28;19920;-65
2023/01/20 08:11:18;;;;;;;;;;;4.40;99.90;;;;;;5093407;28;19912;-67
2023/01/20 08:13:43;;;;;;;;;;;4.40;99.90;;;;;;5084409;28;20285;-67
2023/01/20 08:16:10;;;;;;;;;;;4.50;99.90;;;;;;5092251;28;19995;-66
2023/01/20 08:18:36;;;;;;;;;;;4.40;99.90;;;;;;5055519;28;19913;-66
2023/01/20 08:21:07;;;;;;;;;;;4.50;99.90;;;;;;5069552;28;19912;-68
2023/01/20 08:23:36;;;;;;;;;;;4.50;99.90;;;;;;5110984;28;19908;-65
2023/01/20 08:26:05;;;;;;;;;;;4.60;99.90;;;;;;5084808;28;19912;-66
2023/01/20 08:28:31;;;;;;;;;;;4.60;99.90;;;;;;5069049;28;19923;-64
2023/01/20 08:31:04;;;;;;;;;;;4.70;99.90;;;;;;5099762;28;19912;-64
2023/01/20 08:33:29;;;;;;;;;;;4.70;99.90;;;;;;5108128;28;19945;-64
2023/01/20 08:35:58;;;;;;;;;;;4.70;99.90;;;;;;5091028;28;20396;-64
2023/01/20 08:38:23;;;;;;;;;;;4.70;99.90;;;;;;5108346;28;20292;-64
2023/01/20 08:40:49;;;;;;;;;;;4.70;99.90;;;;;;5094992;28;19912;-66
2023/01/20 08:43:14;;;;;;;;;;;4.70;99.90;;;;;;5093707;28;19908;-65
2023/01/20 08:45:42;;;;;;;;;;;4.70;99.90;;;;;;5069087;28;19937;-65
2023/01/20 08:48:08;;;;;;;;;;;4.70;99.90;;;;;;5104738;28;19916;-64
2023/01/20 08:50:34;;;;;;;;;;;4.70;99.90;;;;;;5079748;28;19912;-64
2023/01/20 08:53:00;;;;;;;;;;;4.70;99.90;;;;;;5069210;28;19909;-63
2023/01/20 08:55:25;;;;;;;;;;;4.60;99.90;;;;;;5072889;28;19930;-66
2023/01/20 08:57:51;;;;;;;;;;;4.60;99.90;;;;;;5111175;28;19915;-64
2023/01/20 09:00:17;;;;;;;;;;;4.60;99.90;;;;;;5099118;28;19912;-62
2023/01/20 09:02:42;;;;;;;;;;;4.70;99.90;;;;;;5086317;28;19918;-65
2023/01/20 09:05:08;;;;;;;;;;;4.90;99.90;;;;;;5066014;28;19921;-65
2023/01/20 09:07:34;;;;;;;;;;;4.80;99.90;;;;;;5076914;28;19926;-64
2023/01/20 09:09:59;;;;;;;;;;;4.80;99.90;;;;;;5091360;28;19923;-64
2023/01/20 09:12:25;;;;;;;;;;;4.80;99.90;;;;;;5072387;28;19916;-64
2023/01/20 09:14:50;;;;;;;;;;;4.90;99.90;;;;;;5060680;28;20130;-65
2023/01/20 09:17:16;;;;;;;;;;;4.80;99.90;;;;;;5086634;28;19908;-66
2023/01/20 09:19:42;;;;;;;;;;;4.90;99.90;;;;;;5097025;28;19912;-65
2023/01/20 09:22:07;;;;;;;;;;;4.90;99.90;;;;;;5109758;28;20436;-65
2023/01/20 09:24:33;;;;;;;;;;;4.90;99.90;;;;;;5103124;28;19912;-62
2023/01/20 09:26:58;;;;;;;;;;;5.00;99.90;;;;;;5083447;28;20487;-61
2023/01/20 09:29:24;;;;;;;;;;;5.10;99.90;;;;;;5094151;28;20330;-60
2023/01/20 09:31:56;;;;;;;;;;;5.20;99.90;;;;;;5090430;28;19954;-61
2023/01/20 09:34:23;;;;;;;;;;;5.30;99.90;;;;;;5096578;28;19999;-64
2023/01/20 09:36:50;;;;;;;;;;;5.20;99.90;;;;;;5104657;28;19944;-64
2023/01/20 09:44:49;;;;;;;;;;;5.30;99.90;;;;;;5092601;28;20452;-64
2023/01/20 09:47:31;;;;;;;;;;;5.40;99.90;;;;;;5083058;28;19908;-62
2023/01/20 09:53:03;;;;;;;;;;;5.40;99.90;;;;;;5090297;28;19920;-63
2023/01/20 09:55:38;;;;;;;;;;;5.50;99.90;;;;;;5107930;28;19916;-63
2023/01/20 09:58:10;;;;;;;;;;;5.50;99.90;;;;;;5086912;28;19944;-62
2023/01/20 10:00:36;;;;;;;;;;;5.50;99.90;;;;;;5082229;28;20003;-61
2023/01/20 10:03:10;;;;;;;;;;;5.50;99.90;;;;;;5071042;28;20395;-63
2023/01/20 10:05:37;;;;;;;;;;;5.60;99.90;;;;;;5079322;28;19916;-64
2023/01/20 10:08:38;;;;;;;;;;;5.60;99.90;;;;;;5078029;28;19923;-64
2023/01/20 10:11:07;;;;;;;;;;;5.70;99.90;;;;;;5022837;28;19932;-62
2023/01/20 10:13:38;;;;;;;;;;;5.80;99.90;;;;;;5093311;28;19912;-63
2023/01/20 10:16:06;;;;;;;;;;;5.80;99.90;;;;;;5090203;28;19919;-64
2023/01/20 10:18:54;;;;;;;;;;;5.80;99.90;;;;;;5083751;28;20323;-62
2023/01/20 10:21:25;;;;;;;;;;;5.90;99.90;;;;;;5062243;28;20374;-63
2023/01/20 10:23:56;;;;;;;;;;;6.00;99.90;;;;;;5071053;28;19913;-63
2023/01/20 10:26:34;;;;;;;;;;;6.00;99.90;;;;;;5092490;28;20365;-63
2023/01/20 10:29:01;;;;;;;;;;;6.10;99.90;;;;;;5067799;28;19935;-60
2023/01/20 10:31:36;;;;;;;;;;;6.10;99.90;;;;;;5087499;28;19920;-64
2023/01/20 10:34:11;;;;;;;;;;;6.20;99.90;;;;;;5090962;28;19912;-63
2023/01/20 10:36:38;;;;;;;;;;;6.10;99.90;;;;;;5092507;28;20492;-63
2023/01/20 10:39:09;;;;;;;;;;;6.20;99.90;;;;;;5082920;28;19912;-61
2023/01/20 10:41:44;;;;;;;;;;;6.30;99.90;;;;;;5071195;28;20390;-58
2023/01/20 10:44:11;;;;;;;;;;;6.30;99.90;;;;;;5092205;28;19954;-66
2023/01/20 10:46:55;;;;;;;;;;;6.30;99.90;;;;;;5087719;28;19917;-63
2023/01/20 10:49:21;;;;;;;;;;;6.30;99.90;;;;;;5070657;28;19963;-61
2023/01/20 10:51:46;;;;;;;;;;;6.40;99.90;;;;;;5074430;28;19998;-60
2023/01/20 10:54:15;;;;;;;;;;;6.30;99.90;;;;;;5079642;28;19948;-62
2023/01/20 10:56:52;;;;;;;;;;;6.40;99.90;;;;;;5068111;28;20008;-62
2023/01/20 10:59:25;;;;;;;;;;;6.40;99.90;;;;;;5077262;28;20290;-61
2023/01/20 11:01:51;;;;;;;;;;;6.40;99.90;;;;;;5093632;28;19947;-61
2023/01/20 11:04:18;;;;;;;;;;;6.30;99.90;;;;;;5091015;28;19975;-62
2023/01/20 11:06:47;;;;;;;;;;;6.30;99.90;;;;;;5074875;28;19915;-63
2023/01/20 11:09:22;;;;;;;;;;;6.40;99.90;;;;;;5073381;28;19917;-61
2023/01/20 11:11:48;;;;;;;;;;;6.40;99.90;;;;;;5099207;28;19916;-63
2023/01/20 11:14:14;;;;;;;;;;;6.30;99.90;;;;;;5096702;28;19912;-57
2023/01/20 11:16:43;;;;;;;;;;;6.30;99.90;;;;;;5101500;28;19951;-61
2023/01/20 11:19:10;;;;;;;;;;;6.50;99.90;;;;;;5076549;28;20002;-62
2023/01/20 11:21:36;;;;;;;;;;;6.60;99.90;;;;;;5100842;28;19912;-61
2023/01/20 11:24:28;;;;;;;;;;;6.50;99.90;;;;;;5086876;28;19986;-59
2023/01/20 11:27:01;;;;;;;;;;;6.40;99.90;;;;;;5079437;28;19919;-62
2023/01/20 11:29:28;;;;;;;;;;;6.40;99.90;;;;;;5090464;28;19924;-64
2023/01/20 11:31:54;;;;;;;;;;;6.40;99.90;;;;;;5088083;28;20439;-57
2023/01/20 11:34:26;;;;;;;;;;;6.40;99.90;;;;;;5085977;28;19935;-61
2023/01/20 11:37:03;;;;;;;;;;;6.40;99.90;;;;;;5102122;28;19916;-61
2023/01/20 11:39:32;;;;;;;;;;;6.40;99.90;;;;;;5070634;28;19912;-62
2023/01/20 11:42:14;;;;;;;;;;;6.40;99.90;;;;;;5088308;28;19919;-63
2023/01/20 11:44:42;;;;;;;;;;;6.40;99.90;;;;;;5065816;28;19981;-65
2023/01/20 11:47:20;;;;;;;;;;;6.40;99.90;;;;;;5100612;28;19919;-58
2023/01/20 11:50:04;;;;;;;;;;;6.40;99.90;;;;;;5073646;28;19920;-60
2023/01/20 11:52:30;;;;;;;;;;;6.30;99.90;;;;;;5089633;28;19912;-62
2023/01/20 11:55:08;;;;;;;;;;;6.40;99.90;;;;;;5101541;28;19912;-61
2023/01/20 11:57:36;;;;;;;;;;;6.40;99.90;;;;;;5099934;28;19923;-61
2023/01/20 12:00:02;;;;;;;;;;;6.30;99.90;;;;;;5092397;28;19919;-60
2023/01/20 12:02:28;;;;;;;;;;;6.30;99.90;;;;;;5078015;28;19956;-62
2023/01/20 12:05:01;;;;;;;;;;;6.30;99.90;;;;;;5068837;28;19947;-62
2023/01/20 12:07:29;;;;;;;;;;;6.30;99.90;;;;;;5088399;28;20006;-61
2023/01/20 12:09:58;;;;;;;;;;;6.40;99.90;;;;;;5079136;28;19916;-61
2023/01/20 12:12:27;;;;;;;;;;;6.50;99.90;;;;;;5073122;28;19912;-63
2023/01/20 12:15:02;;;;;;;;;;;6.50;99.90;;;;;;5059076;28;19912;-59
2023/01/20 12:17:44;;;;;;;;;;;6.50;99.90;;;;;;5072278;28;19927;-62
2023/01/20 12:20:14;;;;;;;;;;;6.40;99.90;;;;;;5073347;28;19912;-59
2023/01/20 12:22:52;;;;;;;;;;;6.30;99.90;;;;;;5059658;28;19919;-60
2023/01/20 12:25:20;;;;;;;;;;;6.40;99.90;;;;;;5089322;28;19912;-59
2023/01/20 12:27:47;;;;;;;;;;;6.40;99.90;;;;;;5073556;28;19917;-62
2023/01/20 12:30:15;;;;;;;;;;;6.40;99.90;;;;;;5107371;28;19916;-64
2023/01/20 12:32:41;;;;;;;;;;;6.40;99.90;;;;;;5062708;28;19920;-61
2023/01/20 12:35:12;;;;;;;;;;;6.30;99.90;;;;;;5065069;28;19920;-63
2023/01/20 12:37:43;;;;;;;;;;;6.30;99.90;;;;;;5086474;28;19912;-61
2023/01/20 12:40:11;;;;;;;;;;;6.30;99.90;;;;;;5092119;28;19965;-62
2023/01/20 12:42:49;;;;;;;;;;;6.30;99.90;;;;;;5062970;28;19962;-63
2023/01/20 12:45:24;;;;;;;;;;;6.30;99.90;;;;;;5075633;28;19916;-66
2023/01/20 12:47:53;;;;;;;;;;;6.30;99.90;;;;;;5080286;28;19962;-61
2023/01/20 12:50:18;;;;;;;;;;;6.30;99.90;;;;;;5098225;28;19999;-63
2023/01/20 12:52:57;;;;;;;;;;;6.30;99.90;;;;;;5105722;28;19950;-63
2023/01/20 12:55:22;;;;;;;;;;;6.30;99.90;;;;;;5073200;28;19955;-59
2023/01/20 12:57:54;;;;;;;;;;;6.30;99.90;;;;;;5085498;28;19958;-63
2023/01/20 13:00:26;;;;;;;;;;;6.30;99.90;;;;;;5109050;28;20396;-64
2023/01/20 13:02:58;;;;;;;;;;;6.30;99.90;;;;;;5104432;28;19983;-63
2023/01/20 13:05:29;;;;;;;;;;;6.40;99.90;;;;;;5090506;28;19912;-59
2023/01/20 13:07:57;;;;;;;;;;;6.40;99.90;;;;;;5089559;28;19916;-63
2023/01/20 13:10:32;;;;;;;;;;;6.40;99.90;;;;;;5109196;28;19919;-61
2023/01/20 13:13:17;;;;;;;;;;;6.50;99.90;;;;;;5091886;28;19920;-63
2023/01/20 13:15:42;;;;;;;;;;;6.50;99.90;;;;;;5090257;28;19908;-63
2023/01/20 13:18:16;;;;;;;;;;;6.70;99.90;;;;;;5090286;28;19912;-64
2023/01/20 13:20:44;;;;;;;;;;;6.70;99.90;;;;;;5085307;28;19912;-62
2023/01/20 13:23:12;;;;;;;;;;;6.80;99.90;;;;;;5107548;28;20329;-62
2023/01/20 13:25:39;;;;;;;;;;;6.90;99.90;;;;;;5068733;28;19912;-64
2023/01/20 13:28:06;;;;;;;;;;;6.90;99.90;;;;;;5064531;28;19913;-64
2023/01/20 13:30:53;;;;;;;;;;;7.10;99.90;;;;;;5098862;28;19935;-60
2023/01/20 13:33:28;;;;;;;;;;;7.00;99.90;;;;;;5073540;28;19931;-63
2023/01/20 13:35:54;;;;;;;;;;;6.90;99.90;;;;;;5069924;28;20031;-60
2023/01/20 13:38:26;;;;;;;;;;;6.90;99.90;;;;;;5084139;28;19920;-64
2023/01/20 13:40:53;;;;;;;;;;;6.80;99.90;;;;;;5095019;28;19916;-62
2023/01/20 13:43:19;;;;;;;;;;;6.70;99.90;;;;;;5092312;28;19915;-65
2023/01/20 13:45:44;;;;;;;;;;;6.70;99.90;;;;;;5081112;28;19916;-65
2023/01/20 13:48:10;;;;;;;;;;;6.60;99.90;;;;;;5086322;28;19989;-61
2023/01/20 13:50:36;;;;;;;;;;;6.50;99.90;;;;;;5082651;28;19923;-64
2023/01/20 13:53:11;;;;;;;;;;;6.50;99.90;;;;;;5092810;28;19920;-64
2023/01/20 13:55:40;;;;;;;;;;;6.60;99.90;;;;;;5086065;28;20041;-61
2023/01/20 13:58:15;;;;;;;;;;;6.60;99.90;;;;;;5093303;28;19916;-63
2023/01/20 14:00:41;;;;;;;;;;;6.60;99.90;;;;;;5103620;28;19912;-63
2023/01/20 14:03:13;;;;;;;;;;;6.60;99.90;;;;;;5092671;28;20013;-65
2023/01/20 14:05:39;;;;;;;;;;;6.70;99.90;;;;;;5088146;28;19912;-65
2023/01/20 14:08:11;;;;;;;;;;;6.70;99.90;;;;;;5092285;28;20248;-65
2023/01/20 14:10:37;;;;;;;;;;;6.70;99.90;;;;;;5067309;28;20084;-64
2023/01/20 14:13:07;;;;;;;;;;;6.70;99.90;;;;;;5088573;28;20043;-65
2023/01/20 14:15:34;;;;;;;;;;;6.70;99.90;;;;;;5074485;28;19908;-65
2023/01/20 14:18:00;;;;;;;;;;;6.70;99.90;;;;;;5091158;28;19952;-64
2023/01/20 14:20:26;;;;;;;;;;;6.70;99.90;;;;;;5086322;28;20011;-64
2023/01/20 14:22:52;;;;;;;;;;;6.70;99.90;;;;;;5069058;28;19939;-64
2023/01/20 14:25:22;;;;;;;;;;;6.70;99.90;;;;;;5090814;28;19908;-66
2023/01/20 14:27:48;;;;;;;;;;;6.60;99.90;;;;;;5087192;28;19930;-62
2023/01/20 14:30:15;;;;;;;;;;;6.60;99.90;;;;;;5086702;28;20296;-67
2023/01/20 14:32:41;;;;;;;;;;;6.70;99.90;;;;;;5088831;28;19977;-63
2023/01/20 14:35:16;;;;;;;;;;;6.70;99.90;;;;;;5086731;28;19912;-62
2023/01/20 14:37:42;;;;;;;;;;;6.60;99.90;;;;;;5092099;28;19958;-63
2023/01/20 14:40:10;;;;;;;;;;;6.50;99.90;;;;;;5078016;28;19966;-64
2023/01/20 14:42:37;;;;;;;;;;;6.50;99.90;;;;;;5093153;28;19916;-64
2023/01/20 14:45:19;;;;;;;;;;;6.50;99.90;;;;;;5086703;28;20371;-63
2023/01/20 14:47:44;;;;;;;;;;;6.50;99.90;;;;;;5096497;28;19912;-69